Ana Sayfa
METAR-TAF:

METAR-TAF

Havaalanları :

Stafford Regional Airport

Stafford, Virginia, Amerika Birleşik Devletleri

Enlem: 38-23-53N, Boylam: 077-27-19W, yükseklik: 65 m

Güncel hava durumu gözlemi

Rapor saat 05:15 UTC de 12 dakika önce yapıldı.
Rüzgar güney/güneybatıdan 6 kt
Sıcaklık 24°C
Nem 94%
Basınç 1011 hPa
Görüş mesafesi: 16.1 km
7500 ft yükseklikte parçalı bulutlu
11000 ft yükseklikte parçalı çok bulutlu
hafif çisenti

METAR: KRMN 230515Z AUTO 20006KT 10SM -DZ SCT075 BKN110 24/23 A2984 RMK AO2 T02380230

Saat: 01:27 (05:27 UTC)


TAF: eksik

4.000'den fazla havaalanı için hava durumu gözlemleri ve tahminleri (METAR ve TAF raporları).

Kullanılabilir istasyonlar harita üzerinde sarı ve kırmızı noktalarla gösterilir.

İstasyonun adını görmek için fareyi noktanın üzerinde gezdirin.

Sonrasında hava gözlem ve tahminlerini görmek için tıklayın.

Haritayı değiştirmek için: yaklaştırmak için siyah artı işaretli yeşil düğmeye ve uzaklaştırmak için de eksi işaretli düğmeye hızla tıklayın; bitişik haritalar için yeşil okları kullanın.


METAR-TAF: